createdAt,value
2022-10-28T00:02:23.823Z,15.73
2022-10-28T00:04:50.404Z,15.74
2022-10-28T00:07:16.989Z,15.63
2022-10-28T00:09:43.695Z,15.67
2022-10-28T00:12:10.291Z,15.67
2022-10-28T00:14:36.962Z,15.70
2022-10-28T00:17:03.567Z,15.71
2022-10-28T00:19:30.478Z,15.71
2022-10-28T00:21:57.079Z,15.71
2022-10-28T00:24:23.805Z,15.52
2022-10-28T00:26:50.418Z,15.44
2022-10-28T00:29:19.758Z,15.50
2022-10-28T00:31:47.290Z,15.42
2022-10-28T00:34:19.267Z,15.49
2022-10-28T00:36:47.434Z,15.52
2022-10-28T00:39:25.087Z,15.54
2022-10-28T00:41:57.096Z,15.45
2022-10-28T00:45:01.807Z,15.32
2022-10-28T00:48:02.894Z,15.08
2022-10-28T00:50:54.328Z,15.11
2022-10-28T00:53:32.365Z,15.16
2022-10-28T00:56:02.067Z,15.29
2022-10-28T00:58:29.543Z,15.20
2022-10-28T01:00:56.653Z,15.18
2022-10-28T01:03:23.687Z,15.08
2022-10-28T01:05:51.787Z,15.08
2022-10-28T01:08:19.334Z,15.16
2022-10-28T01:11:26.302Z,15.06
2022-10-28T01:14:01.756Z,15.05
2022-10-28T01:16:52.561Z,14.85
2022-10-28T01:19:44.704Z,14.98
2022-10-28T01:22:34.091Z,14.64
2022-10-28T01:25:30.505Z,14.79
2022-10-28T01:28:15.680Z,14.83
2022-10-28T01:31:21.920Z,14.83
2022-10-28T01:33:54.429Z,14.89
2022-10-28T01:36:51.964Z,14.68
2022-10-28T01:39:35.540Z,14.76
2022-10-28T01:42:14.147Z,14.75
2022-10-28T01:44:54.314Z,14.72
2022-10-28T01:47:51.683Z,14.62
2022-10-28T01:50:26.958Z,14.71
2022-10-28T01:52:57.595Z,14.89
2022-10-28T01:55:30.293Z,14.81
2022-10-28T01:58:01.259Z,14.77
2022-10-28T02:00:28.321Z,14.51
2022-10-28T02:02:56.432Z,14.59
2022-10-28T02:05:41.698Z,14.48
2022-10-28T02:08:20.096Z,14.51
2022-10-28T02:11:11.794Z,14.30
2022-10-28T02:13:44.269Z,14.67
2022-10-28T02:16:28.852Z,14.57
2022-10-28T02:18:55.412Z,14.73
2022-10-28T02:21:37.464Z,14.40
2022-10-28T02:24:28.880Z,14.66
2022-10-28T02:27:15.676Z,14.59
2022-10-28T02:29:51.111Z,14.59
2022-10-28T02:32:23.057Z,14.65
2022-10-28T02:34:55.074Z,14.36
2022-10-28T02:37:27.873Z,14.41
2022-10-28T02:40:03.005Z,13.90
2022-10-28T02:42:33.903Z,14.13
2022-10-28T02:45:11.992Z,13.66
2022-10-28T02:47:43.060Z,13.62
2022-10-28T02:50:15.717Z,13.70
2022-10-28T02:52:45.096Z,13.84
2022-10-28T02:55:11.949Z,14.02
2022-10-28T02:57:44.794Z,14.20
2022-10-28T03:00:16.374Z,14.13
2022-10-28T03:02:43.073Z,14.28
2022-10-28T03:05:10.443Z,14.22
2022-10-28T03:07:37.130Z,14.22
2022-10-28T03:10:04.107Z,14.21
2022-10-28T03:12:30.701Z,14.08
2022-10-28T03:14:57.283Z,14.24
2022-10-28T03:17:23.958Z,13.80
2022-10-28T03:19:50.547Z,13.95
2022-10-28T03:22:17.191Z,14.10
2022-10-28T03:24:43.814Z,14.11
2022-10-28T03:27:10.407Z,14.12
2022-10-28T03:29:37.021Z,14.04
2022-10-28T03:32:03.690Z,13.89
2022-10-28T03:34:30.343Z,13.54
2022-10-28T03:36:56.893Z,13.76
2022-10-28T03:39:23.611Z,13.89
2022-10-28T03:41:50.248Z,13.95
2022-10-28T03:44:16.825Z,13.97
2022-10-28T03:46:43.421Z,13.87
2022-10-28T03:49:10.041Z,13.98
2022-10-28T03:51:36.619Z,13.94
2022-10-28T03:54:03.359Z,13.85
2022-10-28T03:56:29.968Z,13.91
2022-10-28T03:58:56.537Z,13.91
2022-10-28T04:01:23.183Z,13.91
2022-10-28T04:03:49.874Z,13.83
2022-10-28T04:06:17.127Z,13.61
2022-10-28T04:08:43.759Z,13.78
2022-10-28T04:11:10.347Z,13.79
2022-10-28T04:13:36.945Z,13.77
2022-10-28T04:16:03.762Z,13.70
2022-10-28T04:18:30.501Z,13.63
2022-10-28T04:20:57.162Z,13.46
2022-10-28T04:23:23.770Z,13.64
2022-10-28T04:25:54.282Z,13.51
2022-10-28T04:28:24.131Z,13.36
2022-10-28T04:30:50.737Z,13.43
2022-10-28T04:33:17.379Z,13.53
2022-10-28T04:35:45.000Z,13.27
2022-10-28T04:38:12.940Z,13.58
2022-10-28T04:40:39.950Z,13.52
2022-10-28T04:43:08.602Z,13.51
2022-10-28T04:45:36.801Z,13.56
2022-10-28T04:48:03.678Z,13.50
2022-10-28T04:50:30.333Z,13.42
2022-10-28T04:53:00.301Z,13.31
2022-10-28T04:55:27.066Z,13.34
2022-10-28T04:58:06.220Z,13.58
2022-10-28T05:00:32.851Z,13.61
2022-10-28T05:03:03.249Z,13.57
2022-10-28T05:05:30.158Z,13.51
2022-10-28T05:07:57.154Z,13.44
2022-10-28T05:10:24.523Z,13.48
2022-10-28T05:12:51.386Z,13.40
2022-10-28T05:15:18.108Z,13.40
2022-10-28T05:17:46.539Z,12.58
2022-10-28T05:20:16.107Z,12.65
2022-10-28T05:22:48.093Z,12.92
2022-10-28T05:25:14.900Z,13.18
2022-10-28T05:27:41.704Z,13.14
2022-10-28T05:30:09.615Z,13.12
2022-10-28T05:32:36.489Z,12.92
2022-10-28T05:35:05.692Z,13.16
2022-10-28T05:37:32.440Z,13.08
2022-10-28T05:39:59.119Z,13.29
2022-10-28T05:42:25.708Z,13.27
2022-10-28T05:44:52.358Z,13.25
2022-10-28T05:47:19.011Z,13.22
2022-10-28T05:49:45.689Z,13.40
2022-10-28T05:52:12.376Z,13.49
2022-10-28T05:54:38.962Z,13.59
2022-10-28T05:57:05.663Z,13.60
2022-10-28T05:59:32.305Z,13.60
2022-10-28T06:01:59.025Z,13.66
2022-10-28T06:04:25.654Z,13.74
2022-10-28T06:06:55.288Z,13.75
2022-10-28T06:09:22.141Z,13.71
2022-10-28T06:11:47.282Z,13.48
2022-10-28T06:14:13.872Z,13.42
2022-10-28T06:16:40.540Z,13.24
2022-10-28T06:19:07.467Z,13.50
2022-10-28T06:21:34.059Z,13.53
2022-10-28T06:24:00.696Z,12.91
2022-10-28T06:26:27.290Z,13.30
2022-10-28T06:28:53.932Z,13.17
2022-10-28T06:31:20.542Z,12.83
2022-10-28T06:33:47.152Z,13.17
2022-10-28T06:36:13.851Z,13.46
2022-10-28T06:38:40.577Z,13.80
2022-10-28T06:41:07.243Z,13.91
2022-10-28T06:43:33.844Z,14.08
2022-10-28T06:46:02.192Z,13.91
2022-10-28T06:48:30.316Z,14.08
2022-10-28T06:50:58.166Z,14.21
2022-10-28T06:53:25.516Z,13.70
2022-10-28T06:55:56.226Z,14.02
2022-10-28T06:58:25.796Z,14.29
2022-10-28T07:00:53.317Z,14.33
2022-10-28T07:03:20.053Z,13.99
2022-10-28T07:05:49.242Z,13.62
2022-10-28T07:08:15.918Z,13.91
2022-10-28T07:10:42.699Z,13.88
2022-10-28T07:13:09.454Z,14.14
2022-10-28T07:15:36.066Z,14.07
2022-10-28T07:18:02.802Z,14.45
2022-10-28T07:20:32.049Z,14.15
2022-10-28T07:23:02.631Z,13.89
2022-10-28T07:25:30.889Z,14.40
2022-10-28T07:27:58.669Z,14.31
2022-10-28T07:30:25.819Z,14.74
2022-10-28T07:32:52.802Z,14.33
2022-10-28T07:35:20.573Z,14.16
2022-10-28T07:37:47.602Z,14.56
2022-10-28T07:40:14.584Z,14.56
2022-10-28T07:42:41.231Z,14.89
2022-10-28T07:45:08.223Z,14.31
2022-10-28T07:47:35.119Z,14.48
2022-10-28T07:50:02.131Z,14.72
2022-10-28T07:52:28.817Z,14.67
2022-10-28T07:54:55.447Z,14.81
2022-10-28T07:57:22.042Z,15.06
2022-10-28T07:59:48.655Z,14.77
2022-10-28T08:02:20.727Z,14.79
2022-10-28T08:04:47.820Z,15.27
2022-10-28T08:07:15.526Z,15.15
2022-10-28T08:09:42.350Z,15.38
2022-10-28T08:12:09.843Z,15.50
2022-10-28T08:14:36.570Z,15.62
2022-10-28T08:17:03.215Z,15.64
2022-10-28T08:19:29.857Z,15.71
2022-10-28T08:21:56.841Z,15.78
2022-10-28T08:24:23.759Z,15.44
2022-10-28T08:26:50.832Z,15.28
2022-10-28T08:29:17.579Z,15.21
2022-10-28T08:31:44.210Z,15.40
2022-10-28T08:34:10.901Z,15.50
2022-10-28T08:36:37.636Z,15.57
2022-10-28T08:39:04.347Z,15.80
2022-10-28T08:41:52.604Z,15.48
2022-10-28T08:44:56.946Z,15.67
2022-10-28T08:47:53.204Z,15.76
2022-10-28T08:50:23.031Z,15.62
2022-10-28T08:53:06.711Z,15.99
2022-10-28T08:55:41.341Z,16.26
2022-10-28T08:58:13.077Z,16.36
2022-10-28T09:00:43.366Z,16.59
2022-10-28T09:03:13.235Z,16.62
2022-10-28T09:05:44.867Z,16.66
2022-10-28T09:08:22.593Z,16.72
2022-10-28T09:11:01.115Z,16.84
2022-10-28T09:13:42.879Z,16.38
2022-10-28T09:16:11.303Z,16.46
2022-10-28T09:18:56.673Z,16.62
2022-10-28T09:21:32.886Z,16.61
2022-10-28T09:24:07.500Z,16.70
2022-10-28T09:27:00.940Z,16.78
2022-10-28T09:30:08.302Z,16.91
2022-10-28T09:32:37.393Z,17.19
2022-10-28T09:35:11.938Z,16.47
2022-10-28T09:37:44.631Z,16.77
2022-10-28T09:40:14.323Z,17.01
2022-10-28T09:42:49.190Z,17.21
2022-10-28T09:45:27.472Z,17.48
2022-10-28T09:48:33.150Z,16.93
2022-10-28T09:51:00.954Z,17.40
2022-10-28T09:53:42.885Z,17.61
2022-10-28T09:56:10.234Z,17.64
2022-10-28T09:58:40.290Z,17.74
2022-10-28T10:01:06.991Z,17.45
2022-10-28T10:03:33.620Z,17.70
2022-10-28T10:06:11.819Z,17.38
2022-10-28T10:08:40.616Z,18.05
2022-10-28T10:11:30.579Z,17.64
2022-10-28T10:13:59.058Z,18.01
2022-10-28T10:16:56.646Z,18.09
2022-10-28T10:19:23.374Z,17.88
2022-10-28T10:21:55.445Z,18.14
2022-10-28T10:24:23.416Z,18.40
2022-10-28T10:26:51.414Z,18.27
2022-10-28T10:29:18.478Z,18.58
2022-10-28T10:31:46.981Z,18.68
2022-10-28T10:34:27.340Z,18.86
2022-10-28T10:36:56.244Z,18.49
2022-10-28T10:39:37.361Z,18.60
2022-10-28T10:42:16.487Z,18.61
2022-10-28T10:44:43.630Z,18.82
2022-10-28T10:47:10.185Z,18.85
2022-10-28T10:49:37.120Z,18.48
2022-10-28T10:52:15.523Z,18.61
2022-10-28T10:54:56.904Z,18.56
2022-10-28T10:57:25.703Z,19.06
2022-10-28T10:59:54.441Z,19.13
2022-10-28T11:02:21.175Z,18.60
2022-10-28T11:05:02.948Z,18.92
2022-10-28T11:07:30.536Z,18.38
2022-10-28T11:09:57.490Z,18.51
2022-10-28T11:12:35.719Z,18.82
2022-10-28T11:15:23.098Z,19.28
2022-10-28T11:18:17.443Z,19.21
2022-10-28T11:20:55.129Z,19.65
2022-10-28T11:23:46.333Z,19.48
2022-10-28T11:26:16.205Z,19.59
2022-10-28T11:29:23.723Z,19.14
2022-10-28T11:32:08.970Z,19.12
2022-10-28T11:34:54.204Z,19.47
2022-10-28T11:37:47.657Z,19.81
2022-10-28T11:40:51.675Z,19.67
2022-10-28T11:43:55.062Z,19.68
2022-10-28T11:46:43.834Z,19.78
2022-10-28T11:49:25.208Z,19.80
2022-10-28T11:51:57.433Z,19.44
2022-10-28T11:54:31.691Z,19.74
2022-10-28T11:57:09.003Z,19.73
2022-10-28T12:00:00.617Z,19.82
2022-10-28T12:03:14.950Z,19.50
2022-10-28T12:05:55.020Z,19.37
2022-10-28T12:08:30.363Z,19.95
2022-10-28T12:11:11.877Z,19.81
2022-10-28T12:13:42.147Z,19.83
2022-10-28T12:16:17.326Z,19.78
2022-10-28T12:18:51.633Z,19.65
2022-10-28T12:21:24.349Z,20.03
2022-10-28T12:23:53.990Z,19.80
2022-10-28T12:26:24.738Z,19.81
2022-10-28T12:29:01.876Z,20.28
2022-10-28T12:31:34.752Z,20.04
2022-10-28T12:34:09.104Z,19.81
2022-10-28T12:37:04.580Z,19.83
2022-10-28T12:39:55.577Z,19.50
2022-10-28T12:42:40.133Z,19.91
2022-10-28T12:45:13.128Z,19.77
2022-10-28T12:47:53.111Z,19.98
2022-10-28T12:50:19.688Z,19.83
2022-10-28T12:53:01.867Z,19.85
2022-10-28T12:55:35.202Z,20.11
2022-10-28T12:58:22.323Z,20.16
2022-10-28T13:00:54.582Z,20.24
2022-10-28T13:03:21.277Z,20.22
2022-10-28T13:05:50.869Z,20.37
2022-10-28T13:08:47.187Z,20.40
2022-10-28T13:11:19.658Z,20.23
2022-10-28T13:14:18.287Z,20.24
2022-10-28T13:16:51.003Z,20.42
2022-10-28T13:19:20.329Z,20.55
2022-10-28T13:22:11.142Z,20.24
2022-10-28T13:24:55.018Z,20.31
2022-10-28T13:27:22.818Z,19.94
2022-10-28T13:29:56.433Z,20.14
2022-10-28T13:32:39.668Z,20.28
2022-10-28T13:35:24.327Z,20.33
2022-10-28T13:37:54.180Z,19.87
2022-10-28T13:40:43.056Z,20.18
2022-10-28T13:43:20.427Z,19.92
2022-10-28T13:45:48.724Z,20.30
2022-10-28T13:48:30.607Z,19.90
2022-10-28T13:51:09.439Z,20.22
2022-10-28T13:53:45.106Z,20.27
2022-10-28T13:56:20.815Z,20.31
2022-10-28T13:58:59.753Z,20.49
2022-10-28T14:01:37.557Z,20.60
2022-10-28T14:04:05.972Z,20.63
2022-10-28T14:06:35.265Z,20.60
2022-10-28T14:09:02.150Z,20.54
2022-10-28T14:11:30.460Z,20.46
2022-10-28T14:14:01.255Z,20.42
2022-10-28T14:16:44.223Z,20.28
2022-10-28T14:19:10.793Z,20.31
2022-10-28T14:21:51.513Z,20.25
2022-10-28T14:24:38.538Z,20.10
2022-10-28T14:27:08.318Z,19.95
2022-10-28T14:29:45.123Z,19.90
2022-10-28T14:32:33.492Z,19.73
2022-10-28T14:35:19.856Z,19.66
2022-10-28T14:37:55.559Z,19.67
2022-10-28T14:40:24.593Z,19.62
2022-10-28T14:43:27.913Z,19.44
2022-10-28T14:46:09.847Z,19.39
2022-10-28T14:48:47.198Z,19.37
2022-10-28T14:51:18.435Z,19.32
2022-10-28T14:53:46.504Z,19.27
2022-10-28T14:59:00.757Z,19.12
2022-10-28T15:01:35.164Z,19.12
2022-10-28T15:04:04.046Z,19.03
2022-10-28T15:06:41.690Z,18.88
2022-10-28T15:09:17.755Z,18.85
2022-10-28T15:11:49.689Z,18.73
2022-10-28T15:14:37.932Z,18.48
2022-10-28T15:17:13.966Z,18.68
2022-10-28T15:19:41.538Z,18.72
2022-10-28T15:22:20.001Z,18.64
2022-10-28T15:25:14.354Z,18.55
2022-10-28T15:27:44.700Z,18.50
2022-10-28T15:30:25.851Z,18.48
2022-10-28T15:32:54.063Z,18.34
2022-10-28T15:35:38.583Z,18.24
2022-10-28T15:38:38.185Z,18.29
2022-10-28T15:41:22.858Z,18.10
2022-10-28T15:44:03.383Z,18.08
2022-10-28T15:46:32.228Z,18.14
2022-10-28T15:49:01.354Z,18.12
2022-10-28T15:51:28.753Z,18.01
2022-10-28T15:54:10.490Z,17.98
2022-10-28T15:56:57.826Z,18.12
2022-10-28T15:59:25.734Z,18.03
2022-10-28T16:01:56.226Z,17.97
2022-10-28T16:04:23.062Z,17.87
2022-10-28T16:06:52.692Z,17.84
2022-10-28T16:09:35.008Z,17.25
2022-10-28T16:12:22.532Z,17.35
2022-10-28T16:14:57.104Z,17.43
2022-10-28T16:17:27.227Z,17.48
2022-10-28T16:20:04.409Z,17.48
2022-10-28T16:22:35.342Z,17.46
2022-10-28T16:25:03.193Z,17.45
2022-10-28T16:27:33.045Z,17.35
2022-10-28T16:29:59.770Z,17.38
2022-10-28T16:32:35.402Z,17.38
2022-10-28T16:35:02.703Z,17.34
2022-10-28T16:37:32.484Z,17.41
2022-10-28T16:39:59.255Z,17.35
2022-10-28T16:42:27.025Z,17.36
2022-10-28T16:44:53.693Z,17.36
2022-10-28T16:47:23.091Z,17.34
2022-10-28T16:49:54.116Z,17.17
2022-10-28T16:52:27.573Z,17.16
2022-10-28T16:54:54.428Z,17.14
2022-10-28T16:57:21.594Z,17.09
2022-10-28T16:59:48.507Z,17.15
2022-10-28T17:02:30.281Z,17.06
2022-10-28T17:04:57.901Z,17.16
2022-10-28T17:07:25.287Z,17.06
2022-10-28T17:09:52.525Z,17.01
2022-10-28T17:12:37.747Z,16.96
2022-10-28T17:15:18.049Z,16.90
2022-10-28T17:17:45.032Z,16.93
2022-10-28T17:20:11.871Z,16.94
2022-10-28T17:22:40.038Z,16.83
2022-10-28T17:25:08.078Z,16.79
2022-10-28T17:27:34.775Z,16.69
2022-10-28T17:30:01.493Z,16.60
2022-10-28T17:32:28.264Z,16.73
2022-10-28T17:34:54.860Z,16.61
2022-10-28T17:37:21.644Z,16.75
2022-10-28T17:39:48.342Z,16.76
2022-10-28T17:42:15.024Z,16.73
2022-10-28T17:44:41.604Z,16.74
2022-10-28T17:47:08.330Z,16.73
2022-10-28T17:49:36.568Z,16.71
2022-10-28T17:52:03.318Z,16.64
2022-10-28T17:54:29.967Z,16.62
2022-10-28T17:56:56.948Z,16.62
2022-10-28T17:59:23.735Z,16.51
2022-10-28T18:01:50.550Z,16.51
2022-10-28T18:04:17.565Z,16.58
2022-10-28T18:06:44.194Z,16.54
2022-10-28T18:09:13.845Z,16.47
2022-10-28T18:11:40.889Z,16.45
2022-10-28T18:14:07.548Z,16.46
2022-10-28T18:16:36.489Z,16.41
2022-10-28T18:19:05.488Z,16.43
2022-10-28T18:21:32.312Z,16.45
2022-10-28T18:24:04.030Z,16.37
2022-10-28T18:26:32.471Z,16.35
2022-10-28T18:28:59.543Z,16.25
2022-10-28T18:31:26.258Z,16.23
2022-10-28T18:33:53.259Z,16.22
2022-10-28T18:36:23.758Z,16.22
2022-10-28T18:38:51.176Z,16.25
2022-10-28T18:41:20.213Z,16.22
2022-10-28T18:43:47.114Z,16.17
2022-10-28T18:46:14.976Z,16.14
2022-10-28T18:48:42.226Z,16.16
2022-10-28T18:51:12.517Z,16.12
2022-10-28T18:53:41.948Z,16.03
2022-10-28T18:56:12.354Z,16.05
2022-10-28T18:58:39.383Z,16.15
2022-10-28T19:01:11.540Z,16.10
2022-10-28T19:03:38.567Z,16.10
2022-10-28T19:06:11.075Z,16.10
2022-10-28T19:08:38.248Z,16.07
2022-10-28T19:11:05.737Z,16.14
2022-10-28T19:13:34.167Z,16.05
2022-10-28T19:16:00.882Z,15.98
2022-10-28T19:18:27.898Z,15.94
2022-10-28T19:21:00.984Z,15.92
2022-10-28T19:23:27.584Z,15.89
2022-10-28T19:25:56.072Z,15.91
2022-10-28T19:28:23.253Z,15.92
2022-10-28T19:30:50.258Z,15.86
2022-10-28T19:33:16.895Z,15.93
2022-10-28T19:35:43.491Z,15.85
2022-10-28T19:38:10.124Z,15.86
2022-10-28T19:40:36.675Z,15.86
2022-10-28T19:43:03.301Z,15.81
2022-10-28T19:45:29.965Z,15.81
2022-10-28T19:48:01.190Z,15.75
2022-10-28T19:50:28.148Z,15.77
2022-10-28T19:52:54.795Z,15.83
2022-10-28T19:55:21.512Z,15.82
2022-10-28T19:57:50.404Z,15.87
2022-10-28T20:00:19.577Z,15.90
2022-10-28T20:02:47.493Z,15.89
2022-10-28T20:05:14.202Z,15.91
2022-10-28T20:07:40.793Z,15.83
2022-10-28T20:10:08.087Z,15.86
2022-10-28T20:12:34.675Z,15.82
2022-10-28T20:15:01.753Z,15.77
2022-10-28T20:17:28.361Z,15.68
2022-10-28T20:19:54.961Z,15.69
2022-10-28T20:22:21.553Z,15.68
2022-10-28T20:24:48.182Z,15.65
2022-10-28T20:27:14.831Z,15.53
2022-10-28T20:29:41.393Z,15.47
2022-10-28T20:32:08.024Z,15.54
2022-10-28T20:34:34.733Z,15.57
2022-10-28T20:37:01.932Z,15.58
2022-10-28T20:39:28.553Z,15.55
2022-10-28T20:41:55.162Z,15.49
2022-10-28T20:44:21.929Z,15.56
2022-10-28T20:46:49.024Z,15.44
2022-10-28T20:49:15.726Z,15.50
2022-10-28T20:51:42.498Z,15.50
2022-10-28T20:54:09.272Z,15.47
2022-10-28T20:56:38.321Z,15.44
2022-10-28T20:59:05.448Z,15.38
2022-10-28T21:01:37.670Z,15.40
2022-10-28T21:04:09.969Z,15.37
2022-10-28T21:06:37.984Z,15.44
2022-10-28T21:09:05.367Z,15.39
2022-10-28T21:11:32.113Z,15.44
2022-10-28T21:14:00.416Z,15.45
2022-10-28T21:16:27.915Z,15.35
2022-10-28T21:18:55.059Z,15.17
2022-10-28T21:21:23.168Z,15.26
2022-10-28T21:23:49.828Z,15.21
2022-10-28T21:26:17.067Z,15.23
2022-10-28T21:28:44.340Z,15.16
2022-10-28T21:31:16.302Z,15.12
2022-10-28T21:33:43.412Z,14.93
2022-10-28T21:36:12.916Z,14.91
2022-10-28T21:38:40.173Z,14.90
2022-10-28T21:41:12.834Z,14.98
2022-10-28T21:43:41.896Z,14.98
2022-10-28T21:46:08.874Z,14.91
2022-10-28T21:48:36.767Z,14.97
2022-10-28T21:51:08.547Z,14.98
2022-10-28T21:53:38.920Z,14.85
2022-10-28T21:56:15.584Z,14.81
2022-10-28T21:58:44.167Z,14.75
2022-10-28T22:01:13.158Z,14.86
2022-10-28T22:03:39.966Z,14.79
2022-10-28T22:06:07.039Z,14.74
2022-10-28T22:08:33.773Z,14.79
2022-10-28T22:11:06.256Z,14.77
2022-10-28T22:13:34.445Z,14.74
2022-10-28T22:16:04.041Z,14.86
2022-10-28T22:18:32.437Z,14.74
2022-10-28T22:21:11.145Z,14.78
2022-10-28T22:23:38.439Z,14.68
2022-10-28T22:26:07.979Z,14.52
2022-10-28T22:28:34.973Z,14.55
2022-10-28T22:31:04.306Z,14.59
2022-10-28T22:33:31.000Z,14.66
2022-10-28T22:35:58.984Z,14.75
2022-10-28T22:38:26.262Z,14.80
2022-10-28T22:41:11.246Z,14.62
2022-10-28T22:43:38.668Z,14.63
2022-10-28T22:46:05.854Z,14.66
2022-10-28T22:48:32.806Z,14.55
2022-10-28T22:51:00.035Z,14.38
2022-10-28T22:53:26.742Z,14.51
2022-10-28T22:55:53.943Z,14.53
2022-10-28T22:58:21.623Z,14.50
2022-10-28T23:00:48.534Z,14.33
2022-10-28T23:03:15.514Z,14.37
2022-10-28T23:05:42.406Z,14.42
2022-10-28T23:08:14.093Z,14.42
2022-10-28T23:10:40.707Z,14.40
2022-10-28T23:13:08.687Z,14.23
2022-10-28T23:15:35.247Z,14.04
2022-10-28T23:18:01.826Z,14.09
2022-10-28T23:20:28.426Z,14.23
2022-10-28T23:22:56.367Z,14.13
2022-10-28T23:25:23.205Z,14.20
2022-10-28T23:27:49.801Z,14.05
2022-10-28T23:30:16.490Z,14.07
2022-10-28T23:32:43.137Z,14.24
2022-10-28T23:35:09.972Z,14.08
2022-10-28T23:37:36.689Z,14.14
2022-10-28T23:40:03.661Z,14.14
2022-10-28T23:42:30.305Z,14.23
2022-10-28T23:44:56.937Z,14.23
2022-10-28T23:47:23.488Z,14.27
2022-10-28T23:49:50.120Z,14.22
2022-10-28T23:52:16.788Z,14.19
2022-10-28T23:54:43.397Z,14.28
2022-10-28T23:57:10.010Z,14.26
2022-10-28T23:59:36.687Z,14.28
